createdAt,value
2018-12-31T05:45:22.730Z,9.20
2018-12-31T05:47:55.458Z,9.20
2018-12-31T05:50:28.920Z,9.20
2018-12-31T05:53:01.637Z,9.20
2018-12-31T05:55:34.390Z,9.20
2018-12-31T05:58:07.356Z,9.20
2018-12-31T06:00:40.097Z,9.30
2018-12-31T06:03:12.855Z,9.30
2018-12-31T06:05:45.598Z,9.30
2018-12-31T06:08:18.333Z,9.30
2018-12-31T06:10:51.079Z,9.30
2018-12-31T06:13:24.069Z,9.30
2018-12-31T06:15:56.812Z,9.30
2018-12-31T06:18:29.553Z,9.30
2018-12-31T06:21:02.290Z,9.30
2018-12-31T06:23:35.581Z,9.30
2018-12-31T06:26:08.340Z,9.30
2018-12-31T06:28:41.086Z,9.30
2018-12-31T06:31:13.836Z,9.40
2018-12-31T06:33:46.593Z,9.40
2018-12-31T06:36:19.593Z,9.30
2018-12-31T06:38:52.316Z,9.30
2018-12-31T06:41:25.070Z,9.30
2018-12-31T06:43:58.054Z,9.30
2018-12-31T06:46:31.040Z,9.30
2018-12-31T06:49:03.753Z,9.30
2018-12-31T06:51:36.496Z,9.30
2018-12-31T06:54:09.477Z,9.30
2018-12-31T06:56:42.470Z,9.30
2018-12-31T06:59:15.445Z,9.30
2018-12-31T07:01:48.425Z,9.30
2018-12-31T07:04:21.144Z,9.30
2018-12-31T07:06:54.370Z,9.30
2018-12-31T07:09:27.097Z,9.30
2018-12-31T07:11:59.848Z,9.30
2018-12-31T07:14:32.585Z,9.20
2018-12-31T07:17:05.333Z,9.20
2018-12-31T07:19:38.058Z,9.20
2018-12-31T07:22:10.804Z,9.20
2018-12-31T07:24:45.318Z,9.20
2018-12-31T07:27:18.396Z,9.20
2018-12-31T07:29:51.117Z,9.20
2018-12-31T07:32:24.113Z,9.20
2018-12-31T07:34:56.840Z,9.20
2018-12-31T07:37:29.613Z,9.20
2018-12-31T07:40:02.333Z,9.20
2018-12-31T07:42:35.100Z,9.20
2018-12-31T07:45:07.832Z,9.20
2018-12-31T07:47:40.598Z,9.20
2018-12-31T07:50:13.341Z,9.30
2018-12-31T07:52:46.569Z,9.30
2018-12-31T07:55:19.296Z,9.30
2018-12-31T07:57:52.048Z,9.30
2018-12-31T08:00:25.023Z,9.30
2018-12-31T08:02:57.764Z,9.30
2018-12-31T08:05:30.509Z,9.30
2018-12-31T08:08:06.053Z,9.40
2018-12-31T08:10:38.781Z,9.50
2018-12-31T08:13:11.530Z,9.50
2018-12-31T08:15:44.496Z,9.60
2018-12-31T08:18:17.274Z,9.60
2018-12-31T08:20:50.409Z,9.70
2018-12-31T08:23:23.165Z,9.80
2018-12-31T08:25:55.892Z,9.90
2018-12-31T08:28:28.640Z,9.90
2018-12-31T08:31:01.373Z,9.90
2018-12-31T08:33:34.124Z,10.00
2018-12-31T08:36:07.135Z,10.00
2018-12-31T08:38:39.906Z,10.00
2018-12-31T08:41:13.141Z,10.00
2018-12-31T08:43:45.880Z,10.00
2018-12-31T08:46:19.106Z,9.90
2018-12-31T08:48:52.807Z,9.90
2018-12-31T08:51:25.550Z,9.90
2018-12-31T08:53:58.362Z,9.90
2018-12-31T08:56:31.116Z,9.80
2018-12-31T08:59:03.864Z,9.80
2018-12-31T09:01:36.833Z,9.80
2018-12-31T09:04:09.589Z,9.80
2018-12-31T09:06:42.572Z,9.80
2018-12-31T09:09:15.340Z,9.80
2018-12-31T09:11:48.327Z,9.80
2018-12-31T09:14:21.082Z,9.80
2018-12-31T09:16:53.847Z,9.80
2018-12-31T09:19:26.604Z,9.80
2018-12-31T09:21:59.347Z,9.80
2018-12-31T09:24:32.107Z,9.80
2018-12-31T09:27:05.076Z,9.80
2018-12-31T09:29:37.829Z,9.90
2018-12-31T09:32:10.564Z,9.90
2018-12-31T09:34:43.314Z,9.90
2018-12-31T09:37:16.541Z,9.90
2018-12-31T09:39:49.297Z,10.00
2018-12-31T09:42:22.277Z,10.00
2018-12-31T09:44:58.241Z,10.00
2018-12-31T09:47:30.997Z,10.00
2018-12-31T09:50:03.948Z,10.00
2018-12-31T09:52:36.684Z,10.10
2018-12-31T09:55:09.449Z,10.10
2018-12-31T09:57:42.192Z,10.10
2018-12-31T10:00:15.189Z,10.10
2018-12-31T10:02:48.171Z,10.10
2018-12-31T10:05:21.156Z,10.00
2018-12-31T10:07:53.880Z,10.00
2018-12-31T10:10:26.649Z,10.00
2018-12-31T10:12:59.412Z,10.10
2018-12-31T10:15:32.153Z,10.10
2018-12-31T10:18:05.162Z,10.10
2018-12-31T10:20:37.904Z,10.10
2018-12-31T10:23:10.679Z,10.10
2018-12-31T10:25:43.413Z,10.10
2018-12-31T10:28:16.181Z,10.10
2018-12-31T10:30:48.914Z,10.00
2018-12-31T10:33:21.681Z,10.00
2018-12-31T10:35:54.428Z,10.00
2018-12-31T10:38:27.189Z,10.00
2018-12-31T10:40:59.928Z,10.00
2018-12-31T10:43:32.681Z,9.90
2018-12-31T10:46:05.405Z,9.90
2018-12-31T10:48:38.234Z,9.90
2018-12-31T10:51:11.200Z,9.90
2018-12-31T10:53:43.945Z,9.90
2018-12-31T10:56:16.912Z,9.90
2018-12-31T10:58:49.924Z,10.00
2018-12-31T11:01:22.684Z,9.90
2018-12-31T11:03:55.434Z,10.00
2018-12-31T11:06:28.503Z,9.90
2018-12-31T11:09:01.237Z,9.90
2018-12-31T11:11:34.051Z,10.00
2018-12-31T11:14:06.797Z,10.00
2018-12-31T11:16:39.525Z,10.00
2018-12-31T11:19:12.280Z,10.00
2018-12-31T11:21:45.244Z,10.00
2018-12-31T11:24:18.017Z,10.00
2018-12-31T11:26:50.756Z,10.10
2018-12-31T11:29:23.529Z,10.10
2018-12-31T11:31:56.267Z,10.10
2018-12-31T11:34:29.052Z,10.10
2018-12-31T11:37:01.828Z,10.00
2018-12-31T11:39:34.816Z,10.00
2018-12-31T11:42:07.856Z,10.10
2018-12-31T11:44:40.913Z,10.10
2018-12-31T11:47:13.897Z,10.10
2018-12-31T11:49:46.929Z,10.00
2018-12-31T11:52:19.656Z,10.00
2018-12-31T11:54:52.956Z,10.00
2018-12-31T11:57:25.706Z,10.00
2018-12-31T11:59:58.465Z,10.00
2018-12-31T12:02:31.196Z,10.00
2018-12-31T12:05:04.129Z,10.00
2018-12-31T12:07:36.860Z,10.00
2018-12-31T12:10:09.612Z,10.10
2018-12-31T12:12:42.345Z,10.10
2018-12-31T12:15:15.112Z,10.10
2018-12-31T12:17:47.904Z,10.10
2018-12-31T12:20:21.068Z,10.10
2018-12-31T12:22:54.040Z,10.10
2018-12-31T12:25:27.366Z,10.10
2018-12-31T12:28:00.132Z,10.10
2018-12-31T12:30:32.886Z,10.10
2018-12-31T12:33:05.703Z,10.10
2018-12-31T12:35:38.500Z,10.20
2018-12-31T12:38:11.236Z,10.20
2018-12-31T12:40:44.007Z,10.20
2018-12-31T12:43:16.757Z,10.30
2018-12-31T12:45:49.584Z,10.20
2018-12-31T12:48:22.339Z,10.30
2018-12-31T12:50:55.141Z,10.30
2018-12-31T12:53:27.992Z,10.30
2018-12-31T12:56:00.781Z,10.30
2018-12-31T12:58:33.609Z,10.40
2018-12-31T13:01:09.189Z,10.40
2018-12-31T13:03:42.013Z,10.40
2018-12-31T13:06:14.778Z,10.40
2018-12-31T13:08:47.888Z,10.30
2018-12-31T13:11:24.205Z,10.30
2018-12-31T13:13:56.921Z,10.30
2018-12-31T13:16:29.672Z,10.30
2018-12-31T13:19:02.410Z,10.30
2018-12-31T13:21:37.931Z,10.30
2018-12-31T13:24:10.747Z,10.30
2018-12-31T13:26:43.917Z,10.30
2018-12-31T13:29:16.716Z,10.30
2018-12-31T13:31:49.506Z,10.30
2018-12-31T13:34:22.292Z,10.30
2018-12-31T13:36:55.166Z,10.30
2018-12-31T13:39:27.902Z,10.30
2018-12-31T13:42:00.655Z,10.30
2018-12-31T13:44:33.408Z,10.30
2018-12-31T13:47:06.161Z,10.30
2018-12-31T13:49:39.104Z,10.30
2018-12-31T13:52:11.890Z,10.30
2018-12-31T13:54:44.708Z,10.30
2018-12-31T13:57:17.484Z,10.40
2018-12-31T13:59:50.236Z,10.40
2018-12-31T14:02:23.119Z,10.40
2018-12-31T14:04:55.929Z,10.40
2018-12-31T14:07:29.213Z,10.40
2018-12-31T14:10:01.956Z,10.40
2018-12-31T14:12:34.951Z,10.40
2018-12-31T14:15:07.685Z,10.50
2018-12-31T14:17:40.477Z,10.50
2018-12-31T14:20:13.221Z,10.50
2018-12-31T14:22:46.010Z,10.50
2018-12-31T14:25:18.749Z,10.40
2018-12-31T14:27:51.513Z,10.40
2018-12-31T14:30:24.251Z,10.40
2018-12-31T14:32:57.269Z,10.40
2018-12-31T14:35:30.249Z,10.40
2018-12-31T14:38:03.052Z,10.40
2018-12-31T14:40:35.793Z,10.40
2018-12-31T14:43:08.536Z,10.40
2018-12-31T14:45:41.275Z,10.40
2018-12-31T14:48:14.032Z,10.40
2018-12-31T14:50:46.769Z,10.40
2018-12-31T14:53:19.792Z,10.40
2018-12-31T14:55:52.537Z,10.30
2018-12-31T14:58:25.357Z,10.30
2018-12-31T15:00:58.285Z,10.30
2018-12-31T15:03:31.113Z,10.30
2018-12-31T15:06:03.849Z,10.30
2018-12-31T15:08:36.615Z,10.30
2018-12-31T15:11:09.351Z,10.30
2018-12-31T15:13:42.125Z,10.30
2018-12-31T15:16:14.855Z,10.30
2018-12-31T15:18:47.648Z,10.30
2018-12-31T15:21:20.385Z,10.20
2018-12-31T15:23:53.137Z,10.20
2018-12-31T15:26:26.178Z,10.20
2018-12-31T15:28:58.937Z,10.20
2018-12-31T15:31:31.951Z,10.20
2018-12-31T15:34:04.703Z,10.20
2018-12-31T15:36:37.725Z,10.10
2018-12-31T15:39:10.880Z,10.10
2018-12-31T15:41:43.627Z,10.10
2018-12-31T15:44:16.389Z,10.10
2018-12-31T15:46:49.406Z,10.10
2018-12-31T15:49:22.442Z,10.10
2018-12-31T15:51:55.241Z,10.00
2018-12-31T15:54:28.264Z,10.00
2018-12-31T15:57:01.181Z,10.00
2018-12-31T15:59:34.420Z,10.00
2018-12-31T16:02:07.167Z,10.00
2018-12-31T16:04:39.986Z,10.00
2018-12-31T16:07:12.793Z,10.00
2018-12-31T16:09:45.792Z,10.00
2018-12-31T16:12:18.529Z,10.00
2018-12-31T16:14:51.288Z,10.00
2018-12-31T16:17:24.050Z,10.00
2018-12-31T16:19:56.829Z,10.00
2018-12-31T16:22:30.057Z,10.00
2018-12-31T16:25:03.089Z,10.00
2018-12-31T16:27:35.809Z,10.00
2018-12-31T16:30:08.811Z,10.00
2018-12-31T16:32:41.542Z,9.90
2018-12-31T16:35:14.330Z,9.90
2018-12-31T16:37:47.082Z,9.90
2018-12-31T16:40:19.844Z,9.90
2018-12-31T16:42:52.582Z,9.90
2018-12-31T16:45:25.349Z,9.90
2018-12-31T16:47:58.316Z,9.90
2018-12-31T16:50:31.057Z,9.90
2018-12-31T16:53:03.793Z,9.90
2018-12-31T16:55:36.605Z,9.90
2018-12-31T16:58:09.401Z,9.90
2018-12-31T17:00:42.641Z,9.90
2018-12-31T17:03:15.721Z,9.80
2018-12-31T17:05:48.488Z,9.80
2018-12-31T17:08:21.229Z,9.80
2018-12-31T17:10:54.154Z,9.90
2018-12-31T17:13:26.889Z,9.80
2018-12-31T17:15:59.680Z,9.80
2018-12-31T17:18:32.656Z,9.80
2018-12-31T17:21:05.425Z,9.80
2018-12-31T17:23:38.394Z,9.80
2018-12-31T17:26:11.156Z,9.80
2018-12-31T17:28:44.601Z,9.80
2018-12-31T17:31:17.433Z,9.80
2018-12-31T17:33:50.176Z,9.80
2018-12-31T17:36:22.965Z,9.80
2018-12-31T17:38:55.730Z,9.80
2018-12-31T17:41:28.481Z,9.80
2018-12-31T17:44:01.233Z,9.80
2018-12-31T17:46:33.997Z,9.80
2018-12-31T17:49:06.910Z,9.80
2018-12-31T17:51:39.766Z,9.80
2018-12-31T17:54:12.512Z,9.80
2018-12-31T17:56:45.270Z,9.80
2018-12-31T17:59:18.239Z,9.80
2018-12-31T18:01:50.981Z,9.80
2018-12-31T18:04:23.725Z,9.90
2018-12-31T18:06:56.714Z,9.90
2018-12-31T18:09:29.445Z,9.90
2018-12-31T18:12:02.436Z,9.80
2018-12-31T18:14:35.179Z,9.80
2018-12-31T18:17:07.924Z,9.80
2018-12-31T18:19:40.913Z,9.80
2018-12-31T18:22:13.705Z,9.80
2018-12-31T18:24:46.479Z,9.80
2018-12-31T18:27:19.615Z,9.80
2018-12-31T18:29:52.673Z,9.80
2018-12-31T18:32:25.421Z,9.80
2018-12-31T18:34:58.864Z,9.90
2018-12-31T18:37:32.019Z,9.80
2018-12-31T18:40:05.261Z,9.90
2018-12-31T18:42:38.013Z,9.90
2018-12-31T18:45:10.753Z,9.90
2018-12-31T18:47:43.993Z,9.90
2018-12-31T18:50:16.966Z,9.90
2018-12-31T18:52:49.721Z,9.90
2018-12-31T18:55:22.526Z,9.80
2018-12-31T18:57:55.536Z,9.80
2018-12-31T19:00:28.265Z,9.80
2018-12-31T19:03:01.273Z,9.80
2018-12-31T19:05:34.238Z,9.80
2018-12-31T19:08:07.169Z,9.80
2018-12-31T19:10:39.904Z,9.80
2018-12-31T19:13:12.762Z,9.80
2018-12-31T19:15:45.593Z,9.80
2018-12-31T19:18:18.508Z,9.80
2018-12-31T19:20:51.245Z,9.80
2018-12-31T19:23:24.001Z,9.80
2018-12-31T19:25:56.761Z,9.80
2018-12-31T19:28:29.700Z,9.80
2018-12-31T19:31:02.842Z,9.80
2018-12-31T19:33:35.585Z,9.80
2018-12-31T19:36:08.578Z,9.80
2018-12-31T19:38:41.745Z,9.80
2018-12-31T19:41:14.744Z,9.80
2018-12-31T19:43:47.494Z,9.80
2018-12-31T19:46:20.236Z,9.80
2018-12-31T19:48:53.003Z,9.80
2018-12-31T19:51:25.972Z,9.80
2018-12-31T19:53:58.732Z,9.80
2018-12-31T19:56:31.540Z,9.80
2018-12-31T19:59:04.320Z,9.70
2018-12-31T20:01:37.108Z,9.70
2018-12-31T20:04:09.865Z,9.70
2018-12-31T20:06:42.681Z,9.70
2018-12-31T20:09:15.436Z,9.70
2018-12-31T20:11:48.168Z,9.70
2018-12-31T20:14:20.920Z,9.70
2018-12-31T20:16:53.657Z,9.70
2018-12-31T20:19:26.411Z,9.60
2018-12-31T20:21:59.227Z,9.60
2018-12-31T20:24:32.218Z,9.60
2018-12-31T20:27:05.033Z,9.60
2018-12-31T20:29:38.302Z,9.60
2018-12-31T20:32:11.282Z,9.50
2018-12-31T20:34:44.029Z,9.50
2018-12-31T20:37:17.019Z,9.50
2018-12-31T20:39:50.002Z,9.50
2018-12-31T20:42:22.752Z,9.40
2018-12-31T20:44:56.066Z,9.40
2018-12-31T20:47:28.837Z,9.40
2018-12-31T20:50:01.604Z,9.40
2018-12-31T20:52:34.354Z,9.30
2018-12-31T20:55:07.119Z,9.30
2018-12-31T20:57:39.857Z,9.30
2018-12-31T21:00:12.601Z,9.30
2018-12-31T21:02:45.340Z,9.30
2018-12-31T21:05:18.341Z,9.30
2018-12-31T21:07:51.056Z,9.30
2018-12-31T21:10:23.808Z,9.20
2018-12-31T21:12:56.546Z,9.20
2018-12-31T21:15:29.382Z,9.20
2018-12-31T21:18:02.125Z,9.20
2018-12-31T21:20:34.870Z,9.20
2018-12-31T21:23:07.610Z,9.30
2018-12-31T21:25:40.605Z,9.30
2018-12-31T21:28:13.341Z,9.30
2018-12-31T21:30:46.086Z,9.30
2018-12-31T21:33:19.125Z,9.30
2018-12-31T21:35:51.881Z,9.30
2018-12-31T21:38:24.892Z,9.30
2018-12-31T21:40:57.645Z,9.30
2018-12-31T21:43:30.621Z,9.30
2018-12-31T21:46:03.375Z,9.30
2018-12-31T21:48:36.116Z,9.30
2018-12-31T21:51:08.865Z,9.30
2018-12-31T21:53:42.028Z,9.30
2018-12-31T21:56:14.883Z,9.30
2018-12-31T21:58:47.624Z,9.30
2018-12-31T22:01:20.377Z,9.30
2018-12-31T22:03:53.632Z,9.30
2018-12-31T22:06:26.396Z,9.30
2018-12-31T22:08:59.145Z,9.30
2018-12-31T22:11:31.900Z,9.30
2018-12-31T22:14:05.175Z,9.30
2018-12-31T22:16:37.945Z,9.30
2018-12-31T22:19:10.697Z,9.30
2018-12-31T22:21:43.679Z,9.30
2018-12-31T22:24:16.688Z,9.30
2018-12-31T22:26:49.452Z,9.30
2018-12-31T22:29:22.204Z,9.30
2018-12-31T22:31:54.961Z,9.30
2018-12-31T22:34:28.208Z,9.30
2018-12-31T22:37:00.977Z,9.30
2018-12-31T22:39:33.953Z,9.30
2018-12-31T22:42:06.714Z,9.30
2018-12-31T22:44:39.965Z,9.30
2018-12-31T22:47:12.953Z,9.30
2018-12-31T22:49:45.753Z,9.30
2018-12-31T22:52:18.586Z,9.30
2018-12-31T22:54:51.571Z,9.40
2018-12-31T22:57:24.329Z,9.40
2018-12-31T22:59:57.079Z,9.40
2018-12-31T23:02:30.088Z,9.40
2018-12-31T23:05:03.029Z,9.40
2018-12-31T23:07:35.800Z,9.40
2018-12-31T23:10:09.052Z,9.40
2018-12-31T23:12:41.829Z,9.40
2018-12-31T23:15:18.202Z,9.40
2018-12-31T23:17:51.118Z,9.30
2018-12-31T23:20:24.321Z,9.30
2018-12-31T23:22:57.077Z,9.30
2018-12-31T23:25:29.841Z,9.30
2018-12-31T23:28:02.644Z,9.30
2018-12-31T23:30:35.488Z,9.30
2018-12-31T23:33:08.369Z,9.30
2018-12-31T23:35:41.161Z,9.30
2018-12-31T23:38:13.954Z,9.30
2018-12-31T23:40:46.708Z,9.30
2018-12-31T23:43:19.562Z,9.30
2018-12-31T23:45:52.312Z,9.30
2018-12-31T23:48:25.133Z,9.30
2018-12-31T23:50:58.115Z,9.30
2018-12-31T23:53:30.864Z,9.30
2018-12-31T23:56:03.607Z,9.30
2018-12-31T23:58:36.365Z,9.30
